createdAt,value
2019-05-18T00:03:49.970Z,11.10
2019-05-18T00:08:43.586Z,11.10
2019-05-18T00:13:34.967Z,11.20
2019-05-18T00:18:26.400Z,11.20
2019-05-18T00:23:17.713Z,11.20
2019-05-18T00:28:09.180Z,11.20
2019-05-18T00:33:00.528Z,11.10
2019-05-18T00:37:51.968Z,11.20
2019-05-18T00:42:43.299Z,11.20
2019-05-18T00:47:42.756Z,11.10
2019-05-18T00:52:26.048Z,11.10
2019-05-18T00:57:17.699Z,11.00
2019-05-18T01:02:11.134Z,11.00
2019-05-18T01:07:02.548Z,11.00
2019-05-18T01:11:53.891Z,11.00
2019-05-18T01:16:49.819Z,10.90
2019-05-18T01:21:41.189Z,10.90
2019-05-18T01:26:34.994Z,10.80
2019-05-18T01:31:26.367Z,10.80
2019-05-18T01:36:17.829Z,10.80
2019-05-18T01:41:09.187Z,10.80
2019-05-18T01:46:00.580Z,10.80
2019-05-18T01:50:54.218Z,10.80
2019-05-18T01:55:45.947Z,10.80
2019-05-18T02:00:37.078Z,10.80
2019-05-18T02:05:28.497Z,10.80
2019-05-18T02:10:19.912Z,10.80
2019-05-18T02:15:11.603Z,10.80
2019-05-18T02:20:07.219Z,10.80
2019-05-18T02:24:58.628Z,10.80
2019-05-18T02:29:50.006Z,10.80
2019-05-18T02:34:41.452Z,10.70
2019-05-18T02:39:32.806Z,10.70
2019-05-18T02:44:24.222Z,10.70
2019-05-18T02:49:17.847Z,10.70
2019-05-18T02:54:09.324Z,10.70
2019-05-18T02:59:00.639Z,10.70
2019-05-18T03:03:52.079Z,10.70
2019-05-18T03:08:45.677Z,10.70
2019-05-18T03:13:37.164Z,10.60
2019-05-18T03:18:28.557Z,10.50
2019-05-18T03:23:19.880Z,10.50
2019-05-18T03:28:11.338Z,10.50
2019-05-18T03:33:02.670Z,10.50
2019-05-18T03:37:54.172Z,10.50
2019-05-18T03:42:47.711Z,10.50
2019-05-18T03:47:39.199Z,10.40
2019-05-18T03:52:30.506Z,10.40
2019-05-18T03:57:21.950Z,10.40
2019-05-18T04:02:13.261Z,10.40
2019-05-18T04:07:04.760Z,10.40
2019-05-18T04:11:56.159Z,10.50
2019-05-18T04:16:47.589Z,10.50
2019-05-18T04:21:38.960Z,10.60
2019-05-18T04:26:30.403Z,10.70
2019-05-18T04:31:21.757Z,10.80
2019-05-18T04:36:15.432Z,11.30
2019-05-18T04:41:06.813Z,12.60
2019-05-18T04:45:58.310Z,13.90
2019-05-18T04:50:49.633Z,14.30
2019-05-18T04:55:41.032Z,14.30
2019-05-18T05:00:32.410Z,18.10
2019-05-18T05:05:23.843Z,18.40
2019-05-18T05:10:15.182Z,23.30
2019-05-18T05:15:06.617Z,23.90
2019-05-18T05:19:57.980Z,26.60
2019-05-18T05:24:49.428Z,27.70
2019-05-18T05:29:43.040Z,28.60
2019-05-18T05:34:34.489Z,29.20
2019-05-18T05:39:25.858Z,30.40
2019-05-18T05:44:17.229Z,31.50
2019-05-18T05:49:08.664Z,31.60
2019-05-18T05:54:02.326Z,32.00
2019-05-18T05:58:53.741Z,32.10
2019-05-18T06:03:47.361Z,31.90
2019-05-18T06:08:38.797Z,31.50
2019-05-18T06:13:30.188Z,32.30
2019-05-18T06:18:21.599Z,31.80
2019-05-18T06:23:13.020Z,32.00
2019-05-18T06:28:04.418Z,31.40
2019-05-18T06:37:49.520Z,31.20
2019-05-18T06:42:40.833Z,29.50
2019-05-18T06:47:32.300Z,26.40
2019-05-18T06:52:23.730Z,25.00
2019-05-18T06:57:15.117Z,22.90
2019-05-18T07:02:08.795Z,22.10
2019-05-18T07:07:02.444Z,21.20
2019-05-18T07:11:56.808Z,21.30
2019-05-18T07:16:45.427Z,20.40
2019-05-18T07:21:36.617Z,20.20
2019-05-18T07:26:28.102Z,20.30
2019-05-18T07:31:19.446Z,20.30
2019-05-18T07:36:10.925Z,19.70
2019-05-18T07:41:02.239Z,19.90
2019-05-18T07:45:53.664Z,19.70
2019-05-18T07:50:45.051Z,18.70
2019-05-18T07:55:36.491Z,19.00
2019-05-18T08:00:27.766Z,19.10
2019-05-18T08:05:19.226Z,18.70
2019-05-18T08:10:10.603Z,18.50
2019-05-18T08:15:02.338Z,18.00
2019-05-18T08:19:53.358Z,18.10
2019-05-18T08:24:44.736Z,18.30
2019-05-18T08:34:27.536Z,18.70
2019-05-18T08:39:18.928Z,18.20
2019-05-18T08:44:10.249Z,18.20
2019-05-18T08:49:01.781Z,18.20
2019-05-18T08:53:53.173Z,18.20
2019-05-18T08:58:44.490Z,18.20
2019-05-18T09:03:35.869Z,18.30
2019-05-18T09:08:27.332Z,18.60
2019-05-18T09:13:18.992Z,18.50
2019-05-18T09:18:10.063Z,18.50
2019-05-18T09:23:01.439Z,18.20
2019-05-18T09:27:52.899Z,18.50
2019-05-18T09:32:44.219Z,18.50
2019-05-18T09:37:35.629Z,18.50
2019-05-18T09:42:26.964Z,18.30
2019-05-18T09:47:18.429Z,18.30
2019-05-18T09:52:09.761Z,18.20
2019-05-18T09:57:01.206Z,18.60
2019-05-18T10:01:54.842Z,18.50
2019-05-18T10:06:46.299Z,18.50
2019-05-18T10:11:39.425Z,18.60
2019-05-18T10:16:29.064Z,19.00
2019-05-18T10:21:20.474Z,19.10
2019-05-18T10:26:11.883Z,19.20
2019-05-18T10:31:03.260Z,19.20
2019-05-18T10:35:54.676Z,19.60
2019-05-18T10:40:46.004Z,19.30
2019-05-18T10:45:37.475Z,19.10
2019-05-18T10:50:28.790Z,19.30
2019-05-18T10:55:22.589Z,19.50
2019-05-18T11:00:13.908Z,19.50
2019-05-18T11:05:05.364Z,19.70
2019-05-18T11:09:56.633Z,19.60
2019-05-18T11:14:48.054Z,19.90
2019-05-18T11:19:39.463Z,20.10
2019-05-18T11:24:30.908Z,20.10
2019-05-18T11:29:25.443Z,19.90
2019-05-18T11:34:13.615Z,20.00
2019-05-18T11:39:05.102Z,20.00
2019-05-18T11:43:56.386Z,19.90
2019-05-18T11:48:47.800Z,20.20
2019-05-18T11:53:39.147Z,20.30
2019-05-18T11:58:30.553Z,20.40
2019-05-18T12:03:21.990Z,20.40
2019-05-18T12:08:13.598Z,20.40
2019-05-18T12:13:04.722Z,20.40
2019-05-18T12:17:56.200Z,20.20
2019-05-18T12:22:47.528Z,20.10
2019-05-18T12:27:39.612Z,19.90
2019-05-18T12:32:30.352Z,20.00
2019-05-18T12:37:21.779Z,20.00
2019-05-18T12:42:13.125Z,20.00
2019-05-18T12:47:04.734Z,20.10
2019-05-18T12:51:55.868Z,20.40
2019-05-18T12:56:47.413Z,20.60
2019-05-18T13:01:38.722Z,20.80
2019-05-18T13:06:30.142Z,20.90
2019-05-18T13:11:21.899Z,21.10
2019-05-18T13:16:12.989Z,21.10
2019-05-18T13:21:04.260Z,21.40
2019-05-18T13:25:55.730Z,21.40
2019-05-18T13:30:47.080Z,21.80
2019-05-18T13:35:38.519Z,21.60
2019-05-18T13:40:29.856Z,21.80
2019-05-18T13:45:21.389Z,21.80
2019-05-18T13:50:12.795Z,21.60
2019-05-18T13:55:05.804Z,21.40
2019-05-18T13:59:55.404Z,20.80
2019-05-18T14:04:46.883Z,20.80
2019-05-18T14:09:38.207Z,20.60
2019-05-18T14:14:29.666Z,20.40
2019-05-18T14:19:21.030Z,19.50
2019-05-18T14:24:12.421Z,18.70
2019-05-18T14:29:04.212Z,18.50
2019-05-18T14:33:55.191Z,18.30
2019-05-18T14:38:46.773Z,18.10
2019-05-18T14:43:38.055Z,17.80
2019-05-18T14:48:29.369Z,17.40
2019-05-18T14:53:20.844Z,17.00
2019-05-18T14:58:12.240Z,16.90
2019-05-18T15:03:03.593Z,16.80
2019-05-18T15:07:55.036Z,16.80
2019-05-18T15:12:46.467Z,16.90
2019-05-18T15:17:37.778Z,16.90
2019-05-18T15:22:29.166Z,17.00
2019-05-18T15:32:12.039Z,17.20
2019-05-18T15:37:03.682Z,17.30
2019-05-18T15:41:54.730Z,17.40
2019-05-18T15:46:46.134Z,17.30
2019-05-18T15:51:37.541Z,17.70
2019-05-18T15:56:29.097Z,17.60
2019-05-18T16:01:20.449Z,17.90
2019-05-18T16:06:11.705Z,17.90
2019-05-18T16:11:03.129Z,17.70
2019-05-18T16:15:54.509Z,17.70
2019-05-18T16:20:45.883Z,18.00
2019-05-18T16:25:37.307Z,18.00
2019-05-18T16:30:28.705Z,18.20
2019-05-18T16:35:20.173Z,18.10
2019-05-18T16:40:11.470Z,18.30
2019-05-18T16:45:03.777Z,18.30
2019-05-18T16:49:54.260Z,18.30
2019-05-18T16:54:45.684Z,18.30
2019-05-18T16:59:37.055Z,18.10
2019-05-18T17:04:28.541Z,18.00
2019-05-18T17:09:19.826Z,17.90
2019-05-18T17:14:11.313Z,17.80
2019-05-18T17:19:02.629Z,17.60
2019-05-18T17:23:54.319Z,17.40
2019-05-18T17:28:45.385Z,17.30
2019-05-18T17:33:36.843Z,17.20
2019-05-18T17:38:28.287Z,17.00
2019-05-18T17:43:22.121Z,17.00
2019-05-18T17:48:13.307Z,17.00
2019-05-18T17:53:04.644Z,17.00
2019-05-18T17:57:56.088Z,17.00
2019-05-18T18:02:48.972Z,16.80
2019-05-18T18:07:38.897Z,16.70
2019-05-18T18:12:30.211Z,16.60
2019-05-18T18:17:21.679Z,16.50
2019-05-18T18:22:13.076Z,16.50
2019-05-18T18:27:04.468Z,16.40
2019-05-18T18:31:55.797Z,16.30
2019-05-18T18:36:47.198Z,16.20
2019-05-18T18:41:38.638Z,16.20
2019-05-18T18:46:30.026Z,16.00
2019-05-18T18:51:21.448Z,15.90
2019-05-18T18:56:12.768Z,15.80
2019-05-18T19:01:04.123Z,15.70
2019-05-18T19:05:55.539Z,15.80
2019-05-18T19:10:46.903Z,15.70
2019-05-18T19:15:38.360Z,15.60
2019-05-18T19:20:29.702Z,15.40
2019-05-18T19:25:21.124Z,15.30
2019-05-18T19:30:12.459Z,15.20
2019-05-18T19:35:03.910Z,15.20
2019-05-18T19:39:55.256Z,15.10
2019-05-18T19:44:46.714Z,15.10
2019-05-18T19:49:38.081Z,14.90
2019-05-18T19:54:29.531Z,14.90
2019-05-18T19:59:20.884Z,15.10
2019-05-18T20:04:12.266Z,14.70
2019-05-18T20:09:03.948Z,14.60
2019-05-18T20:13:55.068Z,14.60
2019-05-18T20:23:37.830Z,14.40
2019-05-18T20:28:29.136Z,14.30
2019-05-18T20:33:20.671Z,14.30
2019-05-18T20:38:11.974Z,14.10
2019-05-18T20:43:03.481Z,14.10
2019-05-18T20:47:54.786Z,13.90
2019-05-18T20:52:46.234Z,13.80
2019-05-18T20:57:39.848Z,13.60
2019-05-18T21:02:31.267Z,13.60
2019-05-18T21:07:22.611Z,13.60
2019-05-18T21:12:14.087Z,13.50
2019-05-18T21:17:05.338Z,13.30
2019-05-18T21:21:59.061Z,13.10
2019-05-18T21:26:50.458Z,13.10
2019-05-18T21:31:41.873Z,13.10
2019-05-18T21:36:33.195Z,13.00
2019-05-18T21:41:24.669Z,12.90
2019-05-18T21:46:16.024Z,12.80
2019-05-18T21:51:09.697Z,12.70
2019-05-18T21:56:01.044Z,12.70
2019-05-18T22:00:52.435Z,12.60
2019-05-18T22:05:43.791Z,12.60
2019-05-18T22:10:35.237Z,12.60
2019-05-18T22:15:28.634Z,12.70
2019-05-18T22:20:18.073Z,12.60
2019-05-18T22:25:09.446Z,12.60
2019-05-18T22:30:00.763Z,12.60
2019-05-18T22:34:52.256Z,12.60
2019-05-18T22:44:34.940Z,12.50
2019-05-18T22:49:26.309Z,12.50
2019-05-18T22:54:17.673Z,12.50
2019-05-18T22:59:14.111Z,12.50
2019-05-18T23:04:02.752Z,12.50
2019-05-18T23:08:56.436Z,12.50
2019-05-18T23:13:47.819Z,12.50
2019-05-18T23:18:39.271Z,12.50
2019-05-18T23:23:30.675Z,12.50
2019-05-18T23:28:22.046Z,12.50
2019-05-18T23:33:13.385Z,12.50
2019-05-18T23:38:07.118Z,12.60
2019-05-18T23:42:58.499Z,12.60
2019-05-18T23:47:49.853Z,12.60
2019-05-18T23:52:41.244Z,12.50
2019-05-18T23:57:32.731Z,12.50
